Sweet Valley, Pennsylvania
Current Conditions -  °F | °C
As of 7:54 AM on Friday 24 Oct 2014 (Local Time) from KAVP Reporting Station
Overcast Overcast  
Wind Chill: 50°   Ceiling: 2400
Heat Index: 50°   Visibility: 10mi
Dew Point: 41°   Wind: 10mph
Humidity: 71%   Direction: 330°NNW
Pressure: 29.91"   Gusts: NA
Location:  41.28°N, 76.14°W
Report Text: KAVP 241154Z AUTO 33009KT 10SM OVC024 10/05 A2991 RMK AO2 SLP128 70022 T01000050 10106 20100 53007
Loading
Personal Weather Stations






























Interactive Weather Map
Tropical Storm Tracking
New forecast layout! Learn more

10-Day Weather Forecast

Advertisements
Track Severe Weather on mobile